Time;durP1;ratioP1;P1;durP2;ratioP2;P2;SDS_P1;SDS_P2;PMS_P1;PMS_P2;Temp;Humidity;BMP_temperature;BMP_pressure;BME280_temperature;BME280_humidity;BME280_pressure;Samples;Min_cycle;Max_cycle;Signal;HPM_P1;HPM_P2
2022/03/10 00:00:44;;;;;;;11.73;6.88;;;;;;;2.70;65.73;102458.66;5058113;28;20021;-75
2022/03/10 00:03:10;;;;;;;13.20;6.50;;;;;;;2.70;66.22;102469.94;5056616;28;20104;-75
2022/03/10 00:05:35;;;;;;;13.60;7.20;;;;;;;2.66;66.18;102473.56;5058658;28;20533;-75
2022/03/10 00:08:00;;;;;;;12.35;7.55;;;;;;;2.56;66.82;102461.78;5058065;28;20029;-75
2022/03/10 00:10:26;;;;;;;17.80;7.20;;;;;;;2.56;67.15;102461.78;5058827;28;20052;-75
2022/03/10 00:12:52;;;;;;;10.60;6.80;;;;;;;2.49;67.39;102462.94;5056886;28;20086;-75
2022/03/10 00:15:23;;;;;;;11.63;6.28;;;;;;;2.43;67.56;102453.59;5058162;28;20028;-75
2022/03/10 00:17:49;;;;;;;10.82;6.13;;;;;;;2.40;67.64;102457.16;5058280;28;20025;-75
2022/03/10 00:20:15;;;;;;;11.55;6.65;;;;;;;2.36;67.68;102459.94;5059576;28;20391;-75
2022/03/10 00:22:49;;;;;;;11.63;7.28;;;;;;;2.34;67.99;102464.34;5061742;28;20064;-75
2022/03/10 00:25:14;;;;;;;15.82;7.38;;;;;;;2.29;67.90;102463.66;5057772;28;20029;-75
2022/03/10 00:27:40;;;;;;;9.82;7.30;;;;;;;2.27;68.45;102453.31;5056986;28;20024;-75
2022/03/10 00:30:07;;;;;;;11.18;6.97;;;;;;;2.35;67.95;102463.44;5056089;28;20044;-75
2022/03/10 00:32:32;;;;;;;16.58;8.13;;;;;;;2.30;68.20;102461.00;5058928;28;20037;-75
2022/03/10 00:34:58;;;;;;;14.57;8.88;;;;;;;2.25;68.41;102455.13;5041783;28;20507;-75
2022/03/10 00:37:23;;;;;;;14.98;7.75;;;;;;;2.19;68.27;102447.53;5056526;28;20075;-75
2022/03/10 00:39:48;;;;;;;11.40;6.97;;;;;;;2.33;68.56;102466.13;5059845;28;20017;-75
2022/03/10 00:42:14;;;;;;;17.70;9.18;;;;;;;2.20;68.23;102451.81;5057154;28;20305;-75
2022/03/10 00:44:39;;;;;;;15.07;7.93;;;;;;;2.26;68.23;102469.84;5053379;28;20466;-75
2022/03/10 00:47:04;;;;;;;11.88;7.03;;;;;;;2.23;68.74;102470.81;5055733;28;20036;-75
2022/03/10 00:49:30;;;;;;;14.35;7.57;;;;;;;2.18;69.19;102466.69;5055061;28;20112;-75
2022/03/10 00:51:55;;;;;;;16.90;7.20;;;;;;;2.11;69.25;102476.44;5061931;28;20366;-75
2022/03/10 00:54:21;;;;;;;14.50;7.25;;;;;;;2.02;69.32;102472.41;5056168;28;20198;-75
2022/03/10 00:56:46;;;;;;;12.50;7.75;;;;;;;2.01;69.82;102475.94;5041459;28;20132;-75
2022/03/10 00:59:11;;;;;;;16.52;7.50;;;;;;;2.02;70.04;102477.63;5056287;28;20072;-75
2022/03/10 01:01:37;;;;;;;11.65;7.13;;;;;;;2.01;70.06;102478.53;5054905;28;20111;-75
2022/03/10 01:04:02;;;;;;;14.02;7.72;;;;;;;1.99;69.61;102482.13;5058257;28;20021;-74
2022/03/10 01:06:28;;;;;;;11.57;7.35;;;;;;;1.89;70.51;102476.38;5055850;28;20034;-74
2022/03/10 01:08:53;;;;;;;14.02;6.93;;;;;;;1.84;70.32;102473.09;5055457;28;20025;-74
2022/03/10 01:11:18;;;;;;;11.90;7.22;;;;;;;1.60;70.90;102448.75;5056495;28;20500;-74
2022/03/10 01:13:44;;;;;;;13.43;7.18;;;;;;;1.66;71.32;102460.72;5059539;28;20024;-74
2022/03/10 01:16:09;;;;;;;11.43;7.00;;;;;;;1.59;71.99;102458.31;5064086;28;20039;-75
2022/03/10 01:18:35;;;;;;;10.40;6.38;;;;;;;1.34;72.09;102436.63;5054853;28;20147;-75
2022/03/10 01:21:01;;;;;;;13.05;6.03;;;;;;;1.38;72.96;102461.63;5058209;28;20028;-75
2022/03/10 01:23:26;;;;;;;16.23;8.85;;;;;;;1.37;73.06;102454.72;5063879;28;20052;-76
2022/03/10 01:25:52;;;;;;;10.80;6.32;;;;;;;1.17;73.56;102435.41;5061654;28;20067;-75
2022/03/10 01:28:17;;;;;;;11.30;6.80;;;;;;;1.30;73.86;102445.44;5063902;28;20052;-75
2022/03/10 01:30:43;;;;;;;12.60;7.18;;;;;;;1.34;73.50;102458.28;5057943;28;20101;-75
2022/03/10 01:33:09;;;;;;;11.32;6.28;;;;;;;1.31;73.91;102460.16;5062745;28;20110;-75
2022/03/10 01:35:35;;;;;;;15.05;7.13;;;;;;;1.33;73.85;102467.00;5057983;28;20052;-75
2022/03/10 01:38:00;;;;;;;16.17;6.45;;;;;;;1.33;74.06;102463.53;5060233;28;20888;-75
2022/03/10 01:40:25;;;;;;;13.65;7.40;;;;;;;1.32;73.76;102459.25;5056891;28;20385;-75
2022/03/10 01:42:52;;;;;;;13.88;7.07;;;;;;;1.27;74.09;102458.56;5059014;28;20029;-75
2022/03/10 01:45:18;;;;;;;13.63;6.88;;;;;;;1.21;74.23;102450.03;5062101;28;20043;-75
2022/03/10 01:47:44;;;;;;;12.70;6.40;;;;;;;1.17;74.47;102453.63;5052938;28;20396;-75
2022/03/10 01:50:12;;;;;;;13.38;8.10;;;;;;;1.13;74.70;102452.06;5060061;28;20039;-75
2022/03/10 01:52:39;;;;;;;16.38;8.07;;;;;;;1.07;74.93;102439.25;5057597;28;20064;-75
2022/03/10 01:55:05;;;;;;;10.85;5.97;;;;;;;1.10;75.31;102454.72;5059168;28;20020;-75
2022/03/10 01:57:31;;;;;;;12.07;6.55;;;;;;;1.08;75.36;102448.72;5061537;28;20033;-75
2022/03/10 01:59:56;;;;;;;12.18;7.25;;;;;;;1.03;75.55;102448.88;5058078;28;20029;-75
2022/03/10 02:02:22;;;;;;;11.57;6.90;;;;;;;1.05;75.79;102446.25;5062137;28;20369;-76
2022/03/10 02:04:47;;;;;;;14.48;7.20;;;;;;;1.11;75.73;102445.16;5061492;28;20074;-76
2022/03/10 02:10:16;;;;;;;13.55;7.70;;;;;;;1.15;75.27;102437.22;5061769;28;20503;-77
2022/03/10 02:12:53;;;;;;;16.13;6.45;;;;;;;1.13;75.11;102441.66;5058360;28;20052;-77
2022/03/10 02:18:06;;;;;;;13.32;7.35;;;;;;;0.92;75.47;102440.56;5055219;28;20048;-76
2022/03/10 02:20:32;;;;;;;14.57;7.35;;;;;;;0.91;75.79;102445.81;5055790;28;20029;-76
2022/03/10 02:22:58;;;;;;;14.80;7.90;;;;;;;0.88;76.21;102443.31;5060361;28;20135;-76
2022/03/10 02:25:24;;;;;;;12.30;7.47;;;;;;;0.88;75.92;102444.16;5056670;28;20047;-77
2022/03/10 02:27:51;;;;;;;13.82;7.55;;;;;;;0.89;76.21;102448.44;5061559;28;20031;-76
2022/03/10 02:30:18;;;;;;;14.85;7.43;;;;;;;0.90;75.95;102454.53;5060332;28;20056;-76
2022/03/10 02:32:45;;;;;;;14.80;7.75;;;;;;;0.93;76.23;102459.63;5057021;28;20032;-76
2022/03/10 02:35:11;;;;;;;12.13;7.32;;;;;;;0.77;75.85;102436.69;5062897;28;20162;-76
2022/03/10 02:37:36;;;;;;;13.73;6.97;;;;;;;0.89;76.25;102473.59;5053930;28;20119;-76
2022/03/10 02:40:03;;;;;;;14.55;8.40;;;;;;;0.86;76.28;102463.31;5063054;28;20036;-75
2022/03/10 02:42:31;;;;;;;22.63;8.20;;;;;;;0.81;76.55;102466.91;5059107;28;20025;-75
2022/03/10 02:44:57;;;;;;;12.95;7.22;;;;;;;0.84;76.74;102472.91;5060834;28;20035;-77
2022/03/10 02:47:22;;;;;;;14.50;7.70;;;;;;;0.84;76.67;102465.09;5054481;28;20033;-76
2022/03/10 02:49:48;;;;;;;12.00;5.78;;;;;;;0.71;76.53;102430.84;5054129;28;20024;-76
2022/03/10 02:52:13;;;;;;;13.77;7.15;;;;;;;0.87;76.72;102465.00;5045778;28;20025;-76
2022/03/10 02:54:39;;;;;;;12.32;7.35;;;;;;;0.81;76.23;102453.06;5057295;28;20036;-76
2022/03/10 02:57:04;;;;;;;11.98;6.20;;;;;;;0.82;76.30;102449.56;5054653;28;20043;-76
2022/03/10 02:59:31;;;;;;;10.02;6.97;;;;;;;0.72;76.14;102420.41;5054214;28;20037;-75
2022/03/10 03:01:56;;;;;;;13.43;7.88;;;;;;;0.88;76.04;102458.91;5055058;28;20032;-75
2022/03/10 03:04:22;;;;;;;18.77;8.43;;;;;;;0.85;76.18;102446.00;5062769;28;20036;-75
2022/03/10 03:06:48;;;;;;;12.43;7.28;;;;;;;0.85;76.21;102452.06;5056947;28;20035;-77
2022/03/10 03:09:13;;;;;;;15.18;7.93;;;;;;;0.85;76.38;102446.00;5063263;28;20510;-76
2022/03/10 03:11:38;;;;;;;15.27;8.05;;;;;;;0.78;76.31;102459.22;5057535;28;20103;-76
2022/03/10 03:14:04;;;;;;;14.20;7.30;;;;;;;0.75;76.76;102468.84;5059066;28;20033;-76
2022/03/10 03:16:30;;;;;;;12.77;6.43;;;;;;;0.71;76.75;102464.63;5054837;28;20024;-76
2022/03/10 03:18:56;;;;;;;19.50;8.43;;;;;;;0.67;76.73;102463.84;5053120;28;20039;-76
2022/03/10 03:21:23;;;;;;;14.02;8.38;;;;;;;0.61;76.81;102469.25;5054206;28;20037;-76
2022/03/10 03:23:49;;;;;;;13.30;7.50;;;;;;;0.57;77.14;102465.91;5056909;28;20032;-76
2022/03/10 03:26:15;;;;;;;11.90;7.22;;;;;;;0.43;77.10;102462.84;5043329;28;20120;-76
2022/03/10 03:28:42;;;;;;;13.70;8.25;;;;;;;0.44;77.21;102468.91;5052077;28;20027;-76
2022/03/10 03:31:09;;;;;;;15.10;7.53;;;;;;;0.46;77.11;102470.56;5035646;28;20036;-76
2022/03/10 03:33:35;;;;;;;13.20;7.40;;;;;;;0.42;77.00;102455.13;5052635;28;20021;-76
2022/03/10 03:36:00;;;;;;;13.80;7.25;;;;;;;0.51;76.43;102476.47;5051906;28;20040;-76
2022/03/10 03:38:25;;;;;;;11.13;6.55;;;;;;;0.36;76.96;102469.97;5051488;28;20040;-76
2022/03/10 03:40:51;;;;;;;13.25;8.43;;;;;;;0.23;77.27;102470.38;5025097;28;20029;-76
2022/03/10 03:43:16;;;;;;;11.00;6.57;;;;;;;0.25;77.53;102479.81;5057148;28;20025;-76
2022/03/10 03:45:42;;;;;;;16.25;8.30;;;;;;;0.23;77.67;102481.59;5051125;28;20061;-76
2022/03/10 03:48:07;;;;;;;11.02;6.38;;;;;;;0.22;77.77;102474.72;5058289;28;20027;-76
2022/03/10 03:50:33;;;;;;;14.48;8.15;;;;;;;0.16;77.28;102467.94;5062677;28;20383;-76
2022/03/10 03:52:58;;;;;;;13.98;7.93;;;;;;;0.28;77.33;102477.13;5058539;28;20021;-77
2022/03/10 03:55:24;;;;;;;14.38;7.60;;;;;;;0.28;77.16;102477.13;5052197;28;20552;-76
2022/03/10 03:57:49;;;;;;;16.67;9.40;;;;;;;0.31;77.09;102490.03;5050361;28;20032;-76
2022/03/10 04:00:18;;;;;;;15.27;7.63;;;;;;;0.16;77.39;102473.13;5056363;28;20032;-76
2022/03/10 04:02:45;;;;;;;15.75;7.20;;;;;;;0.25;77.20;102495.41;5056324;28;20102;-76
2022/03/10 04:05:10;;;;;;;13.43;7.35;;;;;;;0.18;77.34;102486.09;5050534;28;20032;-76
2022/03/10 04:07:36;;;;;;;15.70;7.18;;;;;;;0.23;77.23;102502.38;5050596;28;20400;-77
2022/03/10 04:10:03;;;;;;;17.02;8.25;;;;;;;0.20;77.20;102497.28;5051102;28;20029;-76
2022/03/10 04:12:29;;;;;;;15.95;7.30;;;;;;;0.20;77.57;102507.66;5051042;28;20389;-76
2022/03/10 04:14:54;;;;;;;17.30;7.88;;;;;;;0.18;77.55;102512.03;5051084;28;20025;-77
2022/03/10 04:17:20;;;;;;;12.10;7.68;;;;;;;0.09;77.15;102486.34;5032942;28;20036;-76
2022/03/10 04:19:45;;;;;;;12.48;6.53;;;;;;;0.24;76.99;102508.41;5060424;28;20484;-76
2022/03/10 04:22:10;;;;;;;11.07;7.15;;;;;;;0.22;76.95;102508.47;5056813;28;20095;-76
2022/03/10 04:24:36;;;;;;;13.75;7.75;;;;;;;0.20;76.82;102521.50;5050137;28;20251;-76
2022/03/10 04:27:01;;;;;;;14.05;6.53;;;;;;;0.20;76.93;102520.66;5051286;28;20048;-76
2022/03/10 04:29:26;;;;;;;13.75;7.00;;;;;;;0.15;77.02;102520.78;5059043;28;20133;-75
2022/03/10 04:31:52;;;;;;;11.63;7.43;;;;;;;0.01;76.75;102491.72;5056604;28;20102;-77
2022/03/10 04:34:17;;;;;;;17.05;7.97;;;;;;;0.12;77.18;102517.41;5048947;28;20033;-76
2022/03/10 04:36:43;;;;;;;16.55;7.80;;;;;;;-0.04;77.32;102494.44;5057346;28;20032;-76
2022/03/10 04:39:08;;;;;;;11.20;6.45;;;;;;;0.11;77.16;102515.69;5054753;28;20480;-76
2022/03/10 04:41:36;;;;;;;24.00;7.32;;;;;;;0.06;77.01;102513.22;5061411;28;20101;-76
2022/03/10 04:44:02;;;;;;;12.07;6.05;;;;;;;-0.07;77.44;102499.69;5032611;28;20028;-76
2022/03/10 04:46:27;;;;;;;12.25;6.43;;;;;;;0.01;77.60;102509.06;5050411;28;20033;-76
2022/03/10 04:48:53;;;;;;;11.15;6.60;;;;;;;-0.06;77.22;102504.03;5054182;28;20496;-76
2022/03/10 04:51:19;;;;;;;15.13;7.13;;;;;;;-0.01;77.67;102502.13;5053074;28;20125;-76
2022/03/10 04:53:44;;;;;;;11.73;7.65;;;;;;;0.03;77.54;102520.25;5052282;28;20032;-76
2022/03/10 04:56:09;;;;;;;12.40;7.07;;;;;;;-0.04;77.53;102504.84;5062251;28;20031;-76
2022/03/10 04:58:35;;;;;;;12.68;6.93;;;;;;;-0.02;77.28;102515.19;5054672;28;20032;-76
2022/03/10 05:01:00;;;;;;;13.20;7.47;;;;;;;-0.02;77.85;102515.19;5054814;28;20033;-76
2022/03/10 05:03:26;;;;;;;14.75;7.18;;;;;;;-0.06;77.73;102506.63;5053244;28;20028;-76
2022/03/10 05:05:51;;;;;;;12.15;7.35;;;;;;;-0.10;77.84;102515.38;5052452;28;20087;-76
2022/03/10 05:08:16;;;;;;;14.45;7.47;;;;;;;-0.08;77.71;102516.19;5052578;28;20063;-76
2022/03/10 05:10:42;;;;;;;12.70;6.97;;;;;;;-0.02;77.50;102523.81;5051725;28;20028;-76
2022/03/10 05:13:07;;;;;;;14.02;7.28;;;;;;;0.00;77.55;102531.56;5052425;28;20025;-76
2022/03/10 05:15:33;;;;;;;12.18;7.10;;;;;;;-0.09;77.14;102503.25;5052231;28;20278;-76
2022/03/10 05:18:00;;;;;;;14.43;8.00;;;;;;;0.07;77.01;102529.66;5055383;28;20025;-76
2022/03/10 05:20:27;;;;;;;10.20;6.20;;;;;;;-0.04;76.82;102502.25;5060426;28;20078;-76
2022/03/10 05:22:56;;;;;;;12.93;7.82;;;;;;;0.05;77.20;102528.84;5064782;28;20048;-76
2022/03/10 05:25:24;;;;;;;13.57;8.38;;;;;;;-0.05;77.28;102512.66;5053580;28;20040;-76
2022/03/10 05:27:50;;;;;;;13.18;7.35;;;;;;;-0.23;77.85;102501.00;5064082;28;20036;-76
2022/03/10 05:30:17;;;;;;;14.05;7.40;;;;;;;-0.09;77.63;102511.88;5059668;28;20025;-76
2022/03/10 05:32:43;;;;;;;12.32;6.70;;;;;;;-0.02;77.31;102523.81;5054009;28;20032;-76
2022/03/10 05:35:10;;;;;;;12.85;7.25;;;;;;;0.05;77.00;102523.66;5053219;28;20029;-76
2022/03/10 05:37:37;;;;;;;11.27;6.95;;;;;;;-0.02;76.50;102505.66;5052753;28;20033;-76
2022/03/10 05:40:05;;;;;;;11.90;6.78;;;;;;;0.04;76.39;102522.78;5050172;28;20516;-76
2022/03/10 05:42:30;;;;;;;15.55;7.63;;;;;;;0.06;76.32;102514.97;5064534;28;20032;-75
2022/03/10 05:44:56;;;;;;;12.45;6.57;;;;;;;0.15;76.29;102531.16;5066368;28;20090;-76
2022/03/10 05:47:21;;;;;;;14.27;7.50;;;;;;;0.17;76.24;102528.50;5050932;28;20123;-76
2022/03/10 05:49:46;;;;;;;10.07;5.93;;;;;;;0.15;75.59;102519.91;5050772;28;20241;-76
2022/03/10 05:52:12;;;;;;;15.02;7.45;;;;;;;0.12;75.95;102504.41;5035891;28;20025;-76
2022/03/10 05:54:37;;;;;;;12.68;6.60;;;;;;;0.23;75.76;102512.75;5038280;28;20117;-76
2022/03/10 05:57:03;;;;;;;13.25;6.80;;;;;;;0.24;75.08;102504.09;5044420;28;20210;-76
2022/03/10 05:59:28;;;;;;;14.30;6.95;;;;;;;0.20;75.09;102494.69;5050598;28;20028;-76
2022/03/10 06:01:54;;;;;;;13.57;7.50;;;;;;;0.20;75.14;102499.88;5052501;28;20032;-76
2022/03/10 06:04:19;;;;;;;12.60;6.13;;;;;;;0.37;74.91;102521.03;5050226;28;20021;-76
2022/03/10 06:06:45;;;;;;;15.15;7.63;;;;;;;0.42;74.83;102522.66;5047397;28;20063;-76
2022/03/10 06:09:11;;;;;;;14.15;7.38;;;;;;;0.36;74.35;102514.13;5060811;28;20036;-75
2022/03/10 06:11:37;;;;;;;19.35;8.02;;;;;;;0.43;74.51;102542.53;5063329;28;20040;-75
2022/03/10 06:14:03;;;;;;;20.35;9.68;;;;;;;0.30;75.05;102529.03;5061439;28;20067;-76
2022/03/10 06:16:28;;;;;;;11.93;6.55;;;;;;;0.19;75.72;102535.34;5051782;28;20033;-76
2022/03/10 06:18:54;;;;;;;10.43;7.18;;;;;;;0.17;76.16;102538.88;5058862;28;20068;-76
2022/03/10 06:21:21;;;;;;;9.10;5.93;;;;;;;0.16;76.42;102534.59;5051754;28;20033;-76
2022/03/10 06:23:47;;;;;;;11.80;6.88;;;;;;;0.22;76.27;102551.75;5058492;28;20028;-76
2022/03/10 06:26:13;;;;;;;16.00;7.57;;;;;;;0.21;76.84;102553.50;5058892;28;20396;-77
2022/03/10 06:28:38;;;;;;;12.15;7.07;;;;;;;0.24;76.50;102549.97;5058934;28;20048;-76
2022/03/10 06:31:04;;;;;;;14.13;7.57;;;;;;;0.23;76.95;102549.13;5051902;28;20500;-75
2022/03/10 06:33:30;;;;;;;16.25;8.70;;;;;;;0.22;76.83;102551.75;5055960;28;20033;-76
2022/03/10 06:35:56;;;;;;;15.02;7.55;;;;;;;0.19;77.09;102543.13;5048853;28;20382;-75
2022/03/10 06:38:21;;;;;;;16.75;8.40;;;;;;;0.19;77.04;102540.53;5048397;28;20093;-77
2022/03/10 06:40:46;;;;;;;16.65;8.13;;;;;;;0.18;76.91;102533.66;5025054;28;20072;-75
2022/03/10 06:43:12;;;;;;;15.50;7.72;;;;;;;0.29;77.26;102555.91;5027866;28;20030;-76
2022/03/10 06:45:37;;;;;;;12.07;6.90;;;;;;;0.31;77.38;102562.75;5050430;28;20033;-76
2022/03/10 06:48:03;;;;;;;14.63;7.25;;;;;;;0.35;77.17;102559.19;5047758;28;20029;-76
2022/03/10 06:50:28;;;;;;;12.65;6.78;;;;;;;0.22;77.12;102530.97;5048568;28;20154;-75
2022/03/10 06:52:56;;;;;;;13.88;8.02;;;;;;;0.36;76.87;102536.66;5048020;28;20429;-75
2022/03/10 06:55:23;;;;;;;13.20;7.40;;;;;;;0.53;77.20;102554.38;5045675;28;20029;-75
2022/03/10 06:57:50;;;;;;;13.60;6.78;;;;;;;0.57;77.11;102561.19;5049125;28;20029;-75
2022/03/10 07:00:15;;;;;;;11.95;7.20;;;;;;;0.55;76.97;102555.19;5044825;28;20039;-76
2022/03/10 07:02:40;;;;;;;12.75;6.88;;;;;;;0.59;77.32;102562.00;5027415;28;20475;-77
2022/03/10 07:05:08;;;;;;;13.93;7.50;;;;;;;0.37;77.30;102530.53;5040367;28;20075;-77
2022/03/10 07:07:33;;;;;;;13.80;8.38;;;;;;;0.65;77.36;102561.78;5023225;28;20207;-76
2022/03/10 07:09:58;;;;;;;15.02;7.63;;;;;;;0.53;77.49;102551.78;5053629;28;20037;-78
2022/03/10 07:12:27;;;;;;;13.82;6.65;;;;;;;0.56;77.92;102546.47;5033314;28;20083;-77
2022/03/10 07:14:52;;;;;;;14.02;8.10;;;;;;;0.62;78.12;102551.50;5034424;28;20025;-77
2022/03/10 07:17:18;;;;;;;14.50;7.72;;;;;;;0.79;78.09;102580.47;5045424;28;20037;-77
2022/03/10 07:19:45;;;;;;;13.57;7.53;;;;;;;0.84;78.31;102574.28;5053311;28;20534;-77
2022/03/10 07:22:10;;;;;;;15.73;8.48;;;;;;;0.84;78.09;102572.53;5053714;28;20052;-77
2022/03/10 07:24:36;;;;;;;12.40;7.85;;;;;;;1.00;78.42;102580.72;5060045;28;20032;-77
2022/03/10 07:27:01;;;;;;;13.23;8.05;;;;;;;1.08;77.67;102581.34;5054889;28;20036;-77
2022/03/10 07:29:27;;;;;;;13.45;7.00;;;;;;;1.18;77.67;102581.94;5052253;28;20069;-77
2022/03/10 07:31:52;;;;;;;13.18;7.55;;;;;;;1.11;77.55;102560.47;5056807;28;20036;-77
2022/03/10 07:34:17;;;;;;;13.93;8.07;;;;;;;1.28;77.17;102578.13;5051361;28;20043;-77
2022/03/10 07:36:43;;;;;;;13.02;7.70;;;;;;;1.26;77.29;102568.69;5049782;28;20039;-78
2022/03/10 07:39:09;;;;;;;14.02;8.45;;;;;;;1.36;77.31;102567.50;5060761;28;20074;-77
2022/03/10 07:41:34;;;;;;;13.30;7.90;;;;;;;1.62;76.88;102590.94;5053623;28;20492;-77
2022/03/10 07:43:59;;;;;;;17.23;9.48;;;;;;;1.71;76.51;102576.78;5061402;28;20115;-77
2022/03/10 07:46:25;;;;;;;16.65;7.63;;;;;;;1.82;76.37;102589.44;5051148;28;20059;-77
2022/03/10 07:48:51;;;;;;;13.60;8.45;;;;;;;1.97;75.83;102581.13;5050117;28;20039;-77
2022/03/10 07:51:19;;;;;;;13.30;8.93;;;;;;;2.10;75.25;102578.94;5058923;28;20531;-78
2022/03/10 07:53:44;;;;;;;14.82;8.10;;;;;;;2.42;74.18;102585.66;5051101;28;20104;-77
2022/03/10 07:56:10;;;;;;;12.73;7.75;;;;;;;2.67;73.45;102556.06;5051735;28;20029;-77
2022/03/10 07:58:35;;;;;;;13.57;7.72;;;;;;;3.12;72.18;102576.13;5016217;28;20515;-77
2022/03/10 08:01:00;;;;;;;15.70;8.82;;;;;;;3.20;71.71;102553.19;5056262;28;20045;-78
2022/03/10 08:03:26;;;;;;;15.10;8.50;;;;;;;3.50;70.73;102568.53;5052624;28;20029;-78
2022/03/10 08:05:52;;;;;;;14.88;9.57;;;;;;;3.86;70.71;102567.94;5061313;28;20505;-78
2022/03/10 08:08:18;;;;;;;15.32;9.00;;;;;;;4.34;68.87;102556.28;5053226;28;20033;-78
2022/03/10 08:10:44;;;;;;;13.88;8.98;;;;;;;4.81;67.27;102574.22;5050307;28;20113;-77
2022/03/10 08:13:09;;;;;;;14.90;9.23;;;;;;;5.08;65.70;102555.56;5060689;28;20025;-77
2022/03/10 08:15:35;;;;;;;13.43;8.70;;;;;;;5.19;65.55;102563.75;5051621;28;20555;-77
2022/03/10 08:18:00;;;;;;;14.82;9.63;;;;;;;5.62;64.65;102566.91;5032069;28;20025;-77
2022/03/10 08:20:25;;;;;;;15.75;9.35;;;;;;;6.28;63.12;102570.63;5050722;28;20064;-77
2022/03/10 08:22:51;;;;;;;13.60;8.32;;;;;;;6.30;62.82;102547.78;5032100;28;20229;-77
2022/03/10 08:25:17;;;;;;;14.18;9.18;;;;;;;6.91;61.63;102557.63;5026389;28;20024;-77
2022/03/10 08:27:44;;;;;;;15.68;9.52;;;;;;;7.20;59.96;102555.16;5053877;28;20397;-77
2022/03/10 08:30:13;;;;;;;16.05;9.90;;;;;;;8.30;57.93;102557.53;5057769;28;20036;-77
2022/03/10 08:32:45;;;;;;;14.15;9.23;;;;;;;8.63;56.08;102544.13;5051076;28;20033;-77
2022/03/10 08:35:11;;;;;;;15.40;9.45;;;;;;;9.19;54.96;102551.97;5062075;28;20185;-77
2022/03/10 08:37:38;;;;;;;13.32;9.48;;;;;;;9.75;53.65;102544.75;5051409;28;20497;-77
2022/03/10 08:40:05;;;;;;;12.77;9.70;;;;;;;9.57;52.98;102546.00;5059996;28;20039;-78
2022/03/10 08:42:30;;;;;;;14.05;9.23;;;;;;;10.31;51.76;102543.69;5053507;28;20029;-77
2022/03/10 08:44:56;;;;;;;14.45;9.80;;;;;;;10.09;51.47;102559.16;5059452;28;20022;-77
2022/03/10 08:47:21;;;;;;;14.50;10.20;;;;;;;10.66;50.43;102552.59;5049967;28;20554;-77
2022/03/10 08:49:46;;;;;;;15.82;9.48;;;;;;;11.25;49.77;102556.31;5051845;28;20120;-77
2022/03/10 08:52:12;;;;;;;11.43;8.88;;;;;;;10.98;49.70;102557.38;5049654;28;20037;-77
2022/03/10 08:54:37;;;;;;;13.32;9.65;;;;;;;11.45;47.80;102544.25;5057193;28;20500;-77
2022/03/10 08:57:03;;;;;;;13.68;10.25;;;;;;;10.93;49.16;102546.31;5059436;28;20029;-77
2022/03/10 08:59:28;;;;;;;13.35;9.32;;;;;;;10.12;50.84;102544.06;5038130;28;20034;-77
2022/03/10 09:01:54;;;;;;;13.32;9.27;;;;;;;10.62;51.31;102559.03;5052748;28;20021;-77
2022/03/10 09:04:20;;;;;;;14.63;10.55;;;;;;;10.74;49.82;102543.31;5053182;28;20090;-77
2022/03/10 09:06:46;;;;;;;14.93;9.85;;;;;;;11.01;50.50;102546.56;5052970;28;20029;-77
2022/03/10 09:09:11;;;;;;;13.30;9.80;;;;;;;11.86;48.74;102533.22;5050159;28;20523;-77
2022/03/10 09:11:38;;;;;;;11.98;9.43;;;;;;;12.85;47.60;102549.41;5049698;28;20536;-77
2022/03/10 09:14:04;;;;;;;14.13;9.65;;;;;;;12.61;45.87;102549.53;5048851;28;20534;-77
2022/03/10 09:16:29;;;;;;;14.63;9.57;;;;;;;12.83;46.54;102549.53;5056707;28;20473;-77
2022/03/10 09:18:55;;;;;;;15.88;10.48;;;;;;;12.66;47.32;102537.63;5054560;28;20021;-77
2022/03/10 09:21:20;;;;;;;12.88;9.95;;;;;;;13.11;46.02;102532.22;5058702;28;20037;-78
2022/03/10 09:23:46;;;;;;;13.65;10.32;;;;;;;12.62;46.35;102546.78;5033810;28;20048;-77
2022/03/10 09:26:11;;;;;;;16.25;9.75;;;;;;;11.94;47.80;102522.09;5051044;28;20039;-77
2022/03/10 09:28:37;;;;;;;14.10;10.02;;;;;;;12.13;47.31;102525.00;5057686;28;20055;-77
2022/03/10 09:31:03;;;;;;;16.27;10.43;;;;;;;12.54;46.92;102533.28;5049734;28;20029;-77
2022/03/10 09:33:28;;;;;;;14.13;9.55;;;;;;;12.34;47.60;102533.06;5055668;28;20102;-77
2022/03/10 09:35:53;;;;;;;14.77;9.77;;;;;;;12.44;47.18;102535.00;5054524;28;20448;-76
2022/03/10 09:38:19;;;;;;;12.43;9.27;;;;;;;13.48;45.80;102534.53;5056874;28;20036;-76
2022/03/10 09:40:52;;;;;;;13.90;9.45;;;;;;;14.76;44.55;102518.28;5054668;28;20020;-77
2022/03/10 09:43:20;;;;;;;12.88;10.18;;;;;;;15.89;40.50;102530.19;5061737;28;20312;-77
2022/03/10 09:45:48;;;;;;;11.93;9.90;;;;;;;14.92;41.63;102493.84;5055153;28;20021;-77
2022/03/10 09:48:13;;;;;;;13.30;9.02;;;;;;;16.61;40.45;102523.31;5054730;28;20029;-77
2022/03/10 09:50:39;;;;;;;13.77;9.43;;;;;;;16.47;40.09;102522.00;5041830;28;20498;-77
2022/03/10 09:53:05;;;;;;;12.32;9.98;;;;;;;16.32;40.81;102510.97;5040430;28;20119;-77
2022/03/10 09:55:30;;;;;;;14.40;9.93;;;;;;;16.87;38.67;102534.13;5041710;28;20056;-77
2022/03/10 09:57:56;;;;;;;12.48;9.63;;;;;;;16.42;37.96;102516.28;5058565;28;20115;-77
2022/03/10 10:00:21;;;;;;;11.68;9.20;;;;;;;15.89;38.12;102523.03;5057527;28;20142;-77
2022/03/10 10:02:46;;;;;;;11.90;9.48;;;;;;;14.94;38.77;102515.81;5054210;28;20477;-76
2022/03/10 10:05:29;;;;;;;12.38;9.38;;;;;;;15.48;39.07;102522.38;5055847;28;20033;-76
2022/03/10 10:08:09;;;;;;;12.02;8.65;;;;;;;16.27;38.83;102518.59;5055388;28;20036;-77
2022/03/10 10:10:39;;;;;;;12.02;8.07;;;;;;;16.17;37.31;102504.47;5051597;28;20313;-77
2022/03/10 10:13:06;;;;;;;12.65;8.57;;;;;;;16.42;37.99;102509.13;5052165;28;20020;-77
2022/03/10 10:15:40;;;;;;;12.50;8.90;;;;;;;15.45;38.70;102509.34;5055526;28;20047;-77
2022/03/10 10:18:14;;;;;;;12.40;9.18;;;;;;;15.30;38.86;102510.78;5055442;28;20020;-78
2022/03/10 10:20:50;;;;;;;11.32;8.70;;;;;;;15.86;38.64;102512.69;5055642;28;20027;-77
2022/03/10 10:23:27;;;;;;;12.80;8.98;;;;;;;16.76;37.58;102495.16;5054037;28;20076;-77
2022/03/10 10:25:57;;;;;;;12.25;8.93;;;;;;;16.09;37.50;102515.00;5057501;28;20021;-77
2022/03/10 10:28:40;;;;;;;12.27;9.75;;;;;;;15.31;38.89;102507.13;5057211;28;20028;-77
2022/03/10 10:31:11;;;;;;;11.38;9.30;;;;;;;17.46;37.06;102503.34;5058110;28;20503;-77
2022/03/10 10:33:38;;;;;;;;;;;;;;;17.03;37.26;102509.47;5059769;28;20454;-77
2022/03/10 10:36:12;;;;;;;10.48;8.85;;;;;;;16.98;36.52;102501.06;5053579;28;19930;-77
2022/03/10 10:38:40;;;;;;;11.73;9.48;;;;;;;16.52;37.26;102490.41;5057272;28;20033;-77
2022/03/10 10:41:22;;;;;;;11.55;9.55;;;;;;;16.59;37.48;102490.63;5056388;28;20066;-77
2022/03/10 10:43:52;;;;;;;13.38;9.10;;;;;;;16.79;37.62;102492.19;5038194;28;20124;-78
2022/03/10 10:46:25;;;;;;;15.27;9.57;;;;;;;16.69;37.54;102483.41;5059507;28;20079;-77
2022/03/10 10:48:50;;;;;;;11.23;8.85;;;;;;;16.04;37.59;102486.97;5054892;28;20040;-76
2022/03/10 10:51:36;;;;;;;13.05;9.43;;;;;;;16.39;38.28;102482.75;5058609;28;20078;-77
2022/03/10 10:54:04;;;;;;;15.65;10.38;;;;;;;16.03;38.26;102477.31;5049516;28;20061;-77
2022/03/10 10:56:30;;;;;;;13.93;9.38;;;;;;;16.28;38.35;102474.13;5056005;28;20021;-77
2022/03/10 10:58:56;;;;;;;10.50;8.95;;;;;;;16.91;37.11;102463.50;5056748;28;20037;-77
2022/03/10 11:01:36;;;;;;;13.75;8.90;;;;;;;16.58;36.84;102471.16;5037861;28;20515;-77
2022/03/10 11:04:04;;;;;;;12.13;9.57;;;;;;;16.78;37.77;102479.84;5057667;28;20028;-77
2022/03/10 11:06:32;;;;;;;13.98;9.68;;;;;;;16.62;37.29;102477.84;5058014;28;20017;-78
2022/03/10 11:08:57;;;;;;;14.13;9.05;;;;;;;17.19;37.35;102461.59;5059572;28;20032;-77
2022/03/10 11:11:23;;;;;;;14.18;9.52;;;;;;;17.50;36.18;102474.50;5055785;28;20033;-77
2022/03/10 11:13:49;;;;;;;12.98;9.85;;;;;;;17.14;35.90;102482.56;5057634;28;20024;-77
2022/03/10 11:16:17;;;;;;;13.10;9.00;;;;;;;16.99;35.83;102460.09;5059190;28;20024;-77
2022/03/10 11:18:53;;;;;;;14.02;9.55;;;;;;;16.75;36.40;102477.50;5059773;28;20036;-77
2022/03/10 11:21:24;;;;;;;13.18;9.35;;;;;;;17.68;36.14;102493.13;5041745;28;20033;-78
2022/03/10 11:23:59;;;;;;;14.10;9.82;;;;;;;15.60;38.18;102456.53;5055149;28;20093;-77